createdAt,value
2018-05-09T00:01:50.996Z,48.33
2018-05-09T00:04:18.590Z,48.39
2018-05-09T00:06:46.237Z,48.35
2018-05-09T00:09:13.833Z,48.54
2018-05-09T00:11:41.465Z,48.30
2018-05-09T00:14:09.065Z,48.31
2018-05-09T00:16:36.692Z,48.31
2018-05-09T00:19:04.277Z,48.49
2018-05-09T00:21:31.917Z,48.18
2018-05-09T00:23:59.558Z,48.61
2018-05-09T00:26:27.140Z,48.41
2018-05-09T00:28:54.783Z,48.31
2018-05-09T00:31:22.494Z,48.44
2018-05-09T00:33:50.112Z,48.37
2018-05-09T00:36:17.738Z,48.32
2018-05-09T00:38:45.381Z,48.61
2018-05-09T00:41:12.975Z,49.20
2018-05-09T00:43:40.625Z,49.72
2018-05-09T00:46:08.213Z,50.47
2018-05-09T00:48:35.854Z,50.95
2018-05-09T00:51:03.485Z,50.64
2018-05-09T00:53:31.133Z,50.87
2018-05-09T00:55:58.737Z,50.83
2018-05-09T00:58:26.417Z,50.27
2018-05-09T01:00:54.019Z,49.47
2018-05-09T01:03:21.657Z,49.47
2018-05-09T01:05:49.257Z,50.35
2018-05-09T01:08:16.900Z,49.59
2018-05-09T01:10:44.544Z,50.39
2018-05-09T01:13:12.166Z,50.85
2018-05-09T01:15:39.797Z,50.95
2018-05-09T01:18:07.402Z,51.06
2018-05-09T01:20:35.024Z,51.04
2018-05-09T01:23:02.631Z,51.63
2018-05-09T01:25:30.304Z,51.48
2018-05-09T01:27:57.889Z,51.44
2018-05-09T01:30:25.509Z,51.43
2018-05-09T01:32:53.102Z,50.94
2018-05-09T01:35:20.733Z,51.26
2018-05-09T01:37:48.342Z,51.23
2018-05-09T01:40:15.994Z,51.09
2018-05-09T01:42:43.604Z,51.09
2018-05-09T01:45:11.224Z,51.47
2018-05-09T01:47:38.804Z,51.42
2018-05-09T01:50:06.444Z,51.89
2018-05-09T01:52:34.134Z,52.10
2018-05-09T01:55:01.861Z,52.39
2018-05-09T01:57:29.387Z,52.72
2018-05-09T01:59:57.022Z,52.55
2018-05-09T02:02:24.617Z,52.60
2018-05-09T02:04:52.330Z,52.54
2018-05-09T02:07:19.940Z,53.46
2018-05-09T02:09:47.551Z,53.31
2018-05-09T02:12:15.186Z,53.25
2018-05-09T02:14:42.770Z,53.78
2018-05-09T02:17:10.409Z,53.94
2018-05-09T02:19:37.993Z,54.57
2018-05-09T02:22:05.661Z,54.65
2018-05-09T02:24:33.339Z,54.73
2018-05-09T02:27:01.032Z,54.72
2018-05-09T02:29:28.599Z,54.92
2018-05-09T02:31:56.302Z,55.02
2018-05-09T02:34:23.878Z,55.12
2018-05-09T02:36:51.536Z,55.15
2018-05-09T02:39:19.127Z,55.50
2018-05-09T02:41:46.763Z,55.98
2018-05-09T02:44:14.387Z,56.28
2018-05-09T02:46:42.003Z,56.19
2018-05-09T02:49:09.649Z,56.40
2018-05-09T02:51:37.296Z,56.93
2018-05-09T02:54:04.946Z,57.01
2018-05-09T02:56:32.531Z,57.59
2018-05-09T02:59:00.283Z,57.50
2018-05-09T03:01:27.894Z,57.70
2018-05-09T03:03:55.536Z,57.83
2018-05-09T03:06:23.161Z,57.71
2018-05-09T03:08:50.810Z,58.07
2018-05-09T03:11:18.527Z,58.51
2018-05-09T03:13:46.183Z,58.57
2018-05-09T03:16:13.801Z,59.16
2018-05-09T03:18:41.443Z,59.13
2018-05-09T03:21:09.029Z,59.21
2018-05-09T03:23:36.684Z,58.72
2018-05-09T03:26:04.277Z,58.51
2018-05-09T03:28:31.934Z,58.51
2018-05-09T03:30:59.527Z,59.42
2018-05-09T03:33:27.187Z,59.30
2018-05-09T03:35:54.874Z,59.35
2018-05-09T03:38:22.486Z,59.46
2018-05-09T03:40:50.120Z,59.52
2018-05-09T03:43:17.749Z,59.83
2018-05-09T03:45:45.392Z,59.46
2018-05-09T03:48:13.096Z,59.67
2018-05-09T03:50:40.757Z,59.74
2018-05-09T03:53:08.408Z,59.98
2018-05-09T03:55:36.069Z,60.29
2018-05-09T03:58:03.792Z,60.43
2018-05-09T04:00:31.485Z,60.57
2018-05-09T04:03:10.778Z,60.50
2018-05-09T04:05:50.429Z,60.72
2018-05-09T04:08:31.302Z,60.82
2018-05-09T04:10:59.029Z,60.48
2018-05-09T04:13:26.647Z,60.40
2018-05-09T04:15:54.386Z,60.47
2018-05-09T04:18:22.023Z,60.59
2018-05-09T04:20:49.808Z,60.28
2018-05-09T04:23:17.365Z,60.22
2018-05-09T04:25:45.012Z,60.05
2018-05-09T04:28:12.752Z,60.52
2018-05-09T04:30:40.485Z,60.58
2018-05-09T04:33:08.214Z,60.80
2018-05-09T04:35:35.814Z,60.79
2018-05-09T04:38:03.493Z,60.74
2018-05-09T04:40:31.179Z,60.88
2018-05-09T04:42:58.818Z,61.27
2018-05-09T04:45:26.507Z,61.18
2018-05-09T04:47:55.094Z,61.47
2018-05-09T04:50:22.722Z,61.51
2018-05-09T04:52:50.369Z,61.65
2018-05-09T04:55:18.180Z,61.63
2018-05-09T04:57:45.893Z,61.28
2018-05-09T05:00:13.697Z,61.03
2018-05-09T05:02:41.316Z,61.45
2018-05-09T05:05:09.000Z,61.46
2018-05-09T05:07:36.601Z,61.23
2018-05-09T05:10:04.249Z,61.02
2018-05-09T05:12:32.499Z,60.66
2018-05-09T05:15:00.153Z,60.58
2018-05-09T05:17:27.739Z,60.56
2018-05-09T05:19:55.365Z,60.59
2018-05-09T05:22:22.964Z,60.18
2018-05-09T05:24:50.673Z,60.44
2018-05-09T05:27:18.310Z,60.21
2018-05-09T05:29:45.992Z,59.54
2018-05-09T05:32:13.629Z,59.67
2018-05-09T05:34:41.334Z,59.61
2018-05-09T05:37:09.017Z,59.46
2018-05-09T05:39:36.592Z,59.51
2018-05-09T05:42:04.227Z,59.11
2018-05-09T05:44:31.820Z,58.44
2018-05-09T05:46:59.494Z,58.50
2018-05-09T05:49:27.192Z,58.97
2018-05-09T05:51:54.834Z,59.32
2018-05-09T05:54:22.465Z,59.31
2018-05-09T05:56:50.118Z,59.77
2018-05-09T05:59:17.718Z,59.59
2018-05-09T06:01:45.359Z,57.81
2018-05-09T06:04:13.046Z,57.11
2018-05-09T06:06:40.726Z,57.37
2018-05-09T06:09:08.377Z,57.17
2018-05-09T06:11:35.988Z,56.95
2018-05-09T06:14:03.644Z,56.24
2018-05-09T06:16:31.286Z,55.78
2018-05-09T06:18:58.932Z,55.79
2018-05-09T06:21:26.552Z,55.20
2018-05-09T06:23:54.296Z,55.29
2018-05-09T06:26:21.848Z,54.94
2018-05-09T06:28:49.494Z,55.12
2018-05-09T06:31:17.149Z,55.06
2018-05-09T06:33:44.774Z,54.63
2018-05-09T06:36:12.360Z,54.49
2018-05-09T06:38:40.011Z,54.37
2018-05-09T06:41:07.788Z,54.89
2018-05-09T06:43:35.429Z,55.22
2018-05-09T06:46:03.021Z,54.60
2018-05-09T06:48:30.677Z,54.32
2018-05-09T06:50:58.284Z,54.00
2018-05-09T06:53:25.971Z,54.02
2018-05-09T06:55:53.769Z,53.66
2018-05-09T06:58:21.373Z,54.00
2018-05-09T07:00:49.002Z,54.10
2018-05-09T07:03:16.623Z,54.38
2018-05-09T07:05:44.250Z,53.96
2018-05-09T07:08:11.973Z,51.56
2018-05-09T07:10:39.614Z,50.75
2018-05-09T07:13:07.206Z,49.98
2018-05-09T07:15:34.887Z,50.09
2018-05-09T07:18:02.489Z,50.86
2018-05-09T07:20:30.125Z,49.27
2018-05-09T07:22:57.748Z,49.31
2018-05-09T07:25:25.394Z,48.61
2018-05-09T07:27:53.001Z,48.74
2018-05-09T07:30:20.694Z,47.91
2018-05-09T07:32:48.343Z,47.70
2018-05-09T07:35:15.981Z,48.55
2018-05-09T07:37:43.594Z,48.43
2018-05-09T07:40:11.244Z,48.42
2018-05-09T07:42:38.855Z,47.86
2018-05-09T07:45:06.512Z,48.02
2018-05-09T07:47:34.245Z,46.80
2018-05-09T07:50:01.869Z,46.66
2018-05-09T07:52:29.505Z,46.16
2018-05-09T07:54:57.095Z,46.40
2018-05-09T07:57:24.733Z,46.10
2018-05-09T07:59:52.346Z,46.46
2018-05-09T08:02:19.985Z,46.19
2018-05-09T08:04:47.581Z,46.94
2018-05-09T08:07:15.205Z,45.41
2018-05-09T08:09:42.799Z,45.09
2018-05-09T08:12:10.559Z,44.76
2018-05-09T08:14:38.157Z,44.52
2018-05-09T08:17:05.805Z,44.48
2018-05-09T08:19:33.393Z,45.20
2018-05-09T08:22:01.020Z,45.70
2018-05-09T08:24:28.679Z,45.01
2018-05-09T08:26:56.295Z,45.33
2018-05-09T08:29:23.886Z,44.78
2018-05-09T08:31:51.541Z,44.23
2018-05-09T08:34:19.136Z,44.57
2018-05-09T08:36:46.807Z,45.20
2018-05-09T08:39:14.419Z,45.13
2018-05-09T08:41:42.015Z,44.73
2018-05-09T08:44:09.693Z,44.46
2018-05-09T08:46:37.285Z,44.03
2018-05-09T08:49:04.942Z,43.93
2018-05-09T08:51:32.555Z,43.95
2018-05-09T08:54:00.349Z,43.98
2018-05-09T08:56:27.953Z,43.29
2018-05-09T08:58:55.573Z,43.40
2018-05-09T09:01:23.206Z,43.43
2018-05-09T09:03:50.845Z,43.95
2018-05-09T09:06:18.457Z,43.58
2018-05-09T09:08:46.222Z,42.51
2018-05-09T09:11:13.894Z,42.33
2018-05-09T09:13:41.532Z,42.91
2018-05-09T09:16:09.137Z,42.88
2018-05-09T09:18:36.852Z,42.72
2018-05-09T09:21:04.491Z,42.47
2018-05-09T09:23:32.085Z,42.84
2018-05-09T09:25:59.786Z,42.37
2018-05-09T09:28:27.445Z,42.36
2018-05-09T09:30:55.076Z,42.25
2018-05-09T09:33:22.659Z,42.17
2018-05-09T09:35:50.429Z,40.79
2018-05-09T09:38:18.025Z,41.09
2018-05-09T09:40:45.860Z,41.92
2018-05-09T09:43:13.481Z,40.60
2018-05-09T09:45:41.145Z,40.47
2018-05-09T09:48:08.733Z,40.26
2018-05-09T09:50:36.454Z,40.73
2018-05-09T09:53:04.103Z,40.34
2018-05-09T09:55:31.866Z,39.22
2018-05-09T09:57:59.485Z,39.36
2018-05-09T10:00:27.157Z,40.09
2018-05-09T10:02:54.783Z,39.36
2018-05-09T10:05:22.517Z,38.51
2018-05-09T10:07:50.147Z,38.71
2018-05-09T10:10:17.776Z,38.74
2018-05-09T10:12:45.410Z,38.43
2018-05-09T10:15:13.013Z,38.23
2018-05-09T10:17:40.666Z,37.42
2018-05-09T10:20:08.276Z,37.18
2018-05-09T10:22:35.962Z,37.84
2018-05-09T10:25:03.545Z,38.33
2018-05-09T10:27:31.180Z,37.31
2018-05-09T10:29:58.832Z,36.08
2018-05-09T10:32:26.600Z,37.00
2018-05-09T10:34:54.352Z,37.44
2018-05-09T10:37:21.984Z,36.48
2018-05-09T10:39:49.649Z,36.45
2018-05-09T10:42:17.265Z,35.29
2018-05-09T10:44:45.151Z,34.91
2018-05-09T10:47:12.750Z,35.17
2018-05-09T10:49:40.381Z,35.05
2018-05-09T10:52:07.989Z,34.04
2018-05-09T10:54:35.634Z,33.81
2018-05-09T10:57:03.253Z,33.51
2018-05-09T10:59:30.860Z,34.34
2018-05-09T11:01:58.521Z,33.90
2018-05-09T11:04:26.152Z,34.15
2018-05-09T11:06:53.869Z,32.63
2018-05-09T11:09:21.643Z,32.34
2018-05-09T11:11:49.228Z,31.74
2018-05-09T11:14:16.877Z,31.72
2018-05-09T11:16:44.534Z,29.71
2018-05-09T11:19:12.379Z,30.89
2018-05-09T11:21:39.977Z,30.43
2018-05-09T11:24:07.628Z,30.75
2018-05-09T11:26:35.249Z,30.84
2018-05-09T11:29:02.893Z,30.42
2018-05-09T11:31:30.553Z,30.84
2018-05-09T11:33:58.204Z,30.96
2018-05-09T11:36:25.821Z,30.50
2018-05-09T11:38:53.412Z,31.14
2018-05-09T11:41:21.029Z,29.80
2018-05-09T11:43:48.647Z,30.91
2018-05-09T11:46:16.300Z,29.81
2018-05-09T11:48:43.900Z,29.16
2018-05-09T11:51:11.710Z,30.03
2018-05-09T11:53:39.328Z,29.34
2018-05-09T11:56:06.977Z,29.85
2018-05-09T11:58:34.586Z,29.55
2018-05-09T12:01:02.216Z,28.32
2018-05-09T12:03:29.814Z,27.88
2018-05-09T12:05:57.577Z,27.51
2018-05-09T12:08:25.205Z,28.32
2018-05-09T12:10:53.004Z,27.66
2018-05-09T12:13:20.476Z,28.50
2018-05-09T12:15:48.149Z,27.07
2018-05-09T12:18:15.806Z,27.71
2018-05-09T12:20:43.411Z,27.43
2018-05-09T12:23:11.055Z,26.70
2018-05-09T12:25:38.657Z,26.72
2018-05-09T12:28:06.292Z,25.95
2018-05-09T12:30:33.892Z,26.84
2018-05-09T12:33:01.536Z,26.13
2018-05-09T12:35:29.161Z,26.04
2018-05-09T12:37:57.003Z,25.83
2018-05-09T12:40:24.596Z,25.83
2018-05-09T12:42:52.370Z,26.47
2018-05-09T12:45:20.057Z,26.00
2018-05-09T12:47:47.713Z,25.63
2018-05-09T12:50:15.317Z,25.96
2018-05-09T12:52:42.984Z,27.09
2018-05-09T12:55:10.672Z,27.34
2018-05-09T12:57:38.434Z,27.01
2018-05-09T13:00:06.026Z,25.95
2018-05-09T13:02:33.681Z,26.53
2018-05-09T13:05:01.278Z,26.28
2018-05-09T13:07:28.945Z,26.71
2018-05-09T13:09:56.590Z,26.08
2018-05-09T13:12:24.197Z,26.36
2018-05-09T13:14:51.873Z,25.08
2018-05-09T13:17:19.472Z,25.45
2018-05-09T13:19:47.147Z,24.90
2018-05-09T13:22:14.822Z,24.69
2018-05-09T13:24:42.465Z,25.81
2018-05-09T13:27:10.118Z,24.52
2018-05-09T13:29:37.742Z,24.80
2018-05-09T13:32:05.338Z,24.62
2018-05-09T13:34:33.022Z,24.45
2018-05-09T13:37:00.646Z,25.34
2018-05-09T13:39:28.346Z,27.43
2018-05-09T13:41:55.990Z,28.26
2018-05-09T13:44:23.769Z,29.21
2018-05-09T13:46:51.421Z,29.58
2018-05-09T13:49:19.041Z,29.44
2018-05-09T13:51:46.748Z,29.67
2018-05-09T13:54:14.353Z,29.59
2018-05-09T13:56:41.981Z,30.21
2018-05-09T13:59:09.629Z,30.09
2018-05-09T14:01:37.258Z,29.78
2018-05-09T14:04:04.893Z,29.66
2018-05-09T14:06:32.566Z,28.46
2018-05-09T14:09:00.183Z,27.91
2018-05-09T14:11:27.828Z,27.60
2018-05-09T14:13:55.445Z,26.85
2018-05-09T14:16:23.074Z,25.85
2018-05-09T14:18:50.698Z,26.17
2018-05-09T14:21:18.337Z,26.02
2018-05-09T14:23:45.969Z,26.26
2018-05-09T14:26:13.589Z,26.20
2018-05-09T14:28:41.209Z,26.11
2018-05-09T14:31:08.891Z,26.81
2018-05-09T14:33:36.536Z,27.02
2018-05-09T14:36:04.191Z,27.21
2018-05-09T14:38:31.789Z,27.65
2018-05-09T14:40:59.443Z,27.37
2018-05-09T14:43:27.161Z,26.35
2018-05-09T14:45:54.784Z,26.34
2018-05-09T14:48:22.425Z,26.48
2018-05-09T14:50:50.090Z,25.88
2018-05-09T14:53:17.755Z,25.97
2018-05-09T14:55:45.340Z,25.63
2018-05-09T14:58:12.976Z,26.18
2018-05-09T15:00:40.584Z,26.20
2018-05-09T15:03:08.235Z,26.59
2018-05-09T15:05:35.825Z,26.07
2018-05-09T15:08:03.493Z,26.61
2018-05-09T15:10:31.173Z,27.47
2018-05-09T15:12:58.794Z,27.95
2018-05-09T15:15:26.521Z,28.58
2018-05-09T15:17:54.163Z,27.52
2018-05-09T15:20:21.776Z,27.87
2018-05-09T15:22:49.416Z,28.29
2018-05-09T15:25:17.031Z,26.96
2018-05-09T15:27:44.653Z,26.44
2018-05-09T15:30:12.345Z,26.69
2018-05-09T15:32:39.996Z,26.81
2018-05-09T15:35:07.627Z,26.58
2018-05-09T15:37:35.243Z,25.98
2018-05-09T15:40:02.876Z,24.96
2018-05-09T15:42:30.492Z,25.47
2018-05-09T15:44:58.133Z,25.93
2018-05-09T15:47:25.732Z,25.62
2018-05-09T15:49:53.400Z,24.89
2018-05-09T15:52:20.981Z,24.58
2018-05-09T15:54:48.832Z,24.30
2018-05-09T15:57:16.527Z,24.68
2018-05-09T15:59:44.164Z,24.42
2018-05-09T16:02:11.744Z,25.14
2018-05-09T16:04:39.377Z,25.40
2018-05-09T16:07:07.132Z,25.34
2018-05-09T16:09:34.761Z,25.76
2018-05-09T16:12:02.348Z,26.86
2018-05-09T16:14:30.062Z,26.57
2018-05-09T16:16:57.693Z,27.48
2018-05-09T16:19:25.375Z,28.07
2018-05-09T16:21:52.969Z,28.21
2018-05-09T16:24:20.632Z,28.48
2018-05-09T16:26:48.281Z,28.16
2018-05-09T16:29:15.874Z,29.38
2018-05-09T16:31:43.514Z,27.63
2018-05-09T16:34:11.112Z,28.22
2018-05-09T16:36:38.753Z,29.69
2018-05-09T16:39:06.449Z,28.60
2018-05-09T16:41:34.085Z,28.34
2018-05-09T16:44:01.694Z,28.77
2018-05-09T16:46:29.321Z,28.91
2018-05-09T16:48:56.930Z,29.22
2018-05-09T16:51:24.604Z,29.93
2018-05-09T16:53:52.194Z,30.19
2018-05-09T16:56:19.836Z,29.67
2018-05-09T16:58:47.437Z,29.96
2018-05-09T17:01:15.111Z,28.59
2018-05-09T17:03:42.729Z,28.63
2018-05-09T17:06:10.376Z,28.77
2018-05-09T17:08:37.991Z,29.08
2018-05-09T17:11:05.575Z,28.76
2018-05-09T17:13:33.225Z,29.24
2018-05-09T17:16:00.832Z,29.42
2018-05-09T17:18:28.494Z,29.30
2018-05-09T17:20:56.125Z,29.49
2018-05-09T17:23:23.780Z,30.24
2018-05-09T17:25:51.397Z,31.04
2018-05-09T17:28:19.066Z,31.70
2018-05-09T17:30:46.682Z,32.38
2018-05-09T17:33:14.318Z,31.96
2018-05-09T17:35:41.914Z,31.93
2018-05-09T17:38:09.530Z,32.80
2018-05-09T17:40:37.126Z,33.21
2018-05-09T17:43:04.752Z,33.21
2018-05-09T17:45:32.340Z,33.08
2018-05-09T17:48:00.068Z,33.12
2018-05-09T17:50:27.653Z,33.41
2018-05-09T17:52:55.312Z,33.51
2018-05-09T17:55:22.953Z,33.90
2018-05-09T17:57:50.557Z,33.31
2018-05-09T18:00:18.194Z,33.79
2018-05-09T18:02:45.788Z,33.34
2018-05-09T18:05:13.424Z,33.52
2018-05-09T18:07:41.038Z,33.42
2018-05-09T18:10:08.666Z,33.95
2018-05-09T18:12:36.281Z,34.60
2018-05-09T18:15:03.957Z,34.54
2018-05-09T18:17:31.624Z,34.61
2018-05-09T18:19:59.283Z,35.20
2018-05-09T18:22:26.881Z,35.82
2018-05-09T18:24:54.500Z,35.59
2018-05-09T18:27:22.199Z,35.79
2018-05-09T18:29:49.832Z,36.44
2018-05-09T18:32:17.453Z,36.53
2018-05-09T18:34:45.083Z,37.57
2018-05-09T18:37:12.737Z,37.31
2018-05-09T18:39:40.354Z,36.68
2018-05-09T18:42:08.004Z,36.75
2018-05-09T18:44:35.598Z,37.19
2018-05-09T18:47:03.241Z,37.58
2018-05-09T18:49:30.864Z,38.13
2018-05-09T18:51:58.576Z,38.98
2018-05-09T18:54:26.178Z,38.93
2018-05-09T18:56:53.809Z,39.18
2018-05-09T18:59:21.486Z,39.16
2018-05-09T19:01:49.125Z,39.28
2018-05-09T19:04:16.837Z,39.07
2018-05-09T19:06:44.493Z,38.84
2018-05-09T19:09:12.097Z,39.00
2018-05-09T19:11:39.722Z,39.16
2018-05-09T19:14:07.342Z,39.64
2018-05-09T19:16:34.986Z,40.52
2018-05-09T19:19:02.693Z,41.25
2018-05-09T19:21:30.309Z,41.96
2018-05-09T19:23:57.943Z,42.51
2018-05-09T19:26:25.593Z,42.68
2018-05-09T19:28:53.254Z,43.14
2018-05-09T19:31:20.888Z,43.44
2018-05-09T19:33:48.517Z,43.99
2018-05-09T19:36:16.117Z,44.59
2018-05-09T19:38:43.835Z,44.84
2018-05-09T19:41:11.392Z,45.49
2018-05-09T19:43:39.083Z,45.73
2018-05-09T19:46:06.750Z,45.82
2018-05-09T19:48:34.403Z,45.87
2018-05-09T19:51:01.989Z,46.04
2018-05-09T19:53:29.625Z,45.83
2018-05-09T19:55:57.377Z,45.65
2018-05-09T19:58:25.003Z,45.64
2018-05-09T20:00:52.670Z,45.43
2018-05-09T20:03:20.312Z,45.53
2018-05-09T20:05:47.995Z,45.43
2018-05-09T20:08:15.600Z,45.29
2018-05-09T20:10:43.233Z,45.44
2018-05-09T20:13:10.843Z,45.57
2018-05-09T20:15:38.494Z,45.62
2018-05-09T20:18:06.097Z,45.91
2018-05-09T20:20:33.840Z,45.50
2018-05-09T20:23:01.462Z,45.97
2018-05-09T20:25:29.144Z,45.89
2018-05-09T20:27:56.829Z,45.45
2018-05-09T20:30:30.353Z,45.03
2018-05-09T20:32:57.996Z,44.73
2018-05-09T20:35:25.648Z,45.20
2018-05-09T20:37:53.381Z,45.37
2018-05-09T20:40:21.052Z,44.86
2018-05-09T20:42:48.670Z,44.71
2018-05-09T20:45:16.329Z,44.90
2018-05-09T20:47:43.936Z,44.90
2018-05-09T20:50:11.563Z,44.61
2018-05-09T20:52:39.265Z,44.55
2018-05-09T20:58:06.717Z,44.14
2018-05-09T21:00:34.568Z,44.48
2018-05-09T21:03:02.168Z,44.60
2018-05-09T21:05:29.791Z,44.99
2018-05-09T21:07:57.513Z,45.23
2018-05-09T21:10:25.141Z,45.64
2018-05-09T21:12:52.815Z,45.66
2018-05-09T21:15:20.421Z,46.13
2018-05-09T21:17:48.088Z,46.26
2018-05-09T21:20:15.780Z,47.05
2018-05-09T21:22:43.346Z,48.06
2018-05-09T21:25:10.967Z,48.35
2018-05-09T21:27:38.604Z,48.84
2018-05-09T21:30:06.224Z,49.61
2018-05-09T21:32:33.853Z,49.81
2018-05-09T21:35:01.488Z,50.30
2018-05-09T21:37:29.119Z,50.65
2018-05-09T21:39:56.787Z,50.93
2018-05-09T21:42:24.388Z,50.95
2018-05-09T21:44:52.298Z,51.09
2018-05-09T21:47:19.915Z,51.29
2018-05-09T21:49:47.634Z,51.21
2018-05-09T21:52:15.293Z,51.63
2018-05-09T21:54:43.034Z,51.71
2018-05-09T21:57:10.665Z,51.98
2018-05-09T21:59:38.312Z,51.98
2018-05-09T22:02:05.931Z,52.07
2018-05-09T22:04:33.590Z,52.50
2018-05-09T22:07:01.282Z,52.38
2018-05-09T22:09:28.921Z,52.62
2018-05-09T22:11:56.579Z,52.49
2018-05-09T22:14:24.180Z,52.26
2018-05-09T22:16:51.854Z,52.72
2018-05-09T22:19:19.450Z,53.08
2018-05-09T22:21:47.095Z,53.70
2018-05-09T22:24:14.802Z,53.59
2018-05-09T22:26:42.451Z,53.76
2018-05-09T22:29:10.086Z,54.17
2018-05-09T22:31:37.732Z,54.41
2018-05-09T22:34:05.429Z,54.66
2018-05-09T22:36:33.193Z,54.80
2018-05-09T22:39:00.833Z,55.22
2018-05-09T22:41:28.634Z,55.35
2018-05-09T22:43:56.242Z,55.60
2018-05-09T22:46:23.902Z,56.01
2018-05-09T22:48:51.513Z,56.23
2018-05-09T22:51:19.165Z,56.12
2018-05-09T22:53:46.819Z,55.77
2018-05-09T22:56:14.435Z,55.62
2018-05-09T22:58:42.478Z,55.30
2018-05-09T23:01:10.144Z,55.36
2018-05-09T23:03:37.784Z,55.58
2018-05-09T23:06:05.396Z,56.01
2018-05-09T23:08:33.032Z,56.07
2018-05-09T23:11:00.644Z,56.43
2018-05-09T23:13:28.340Z,56.03
2018-05-09T23:15:55.940Z,56.19
2018-05-09T23:18:23.589Z,55.97
2018-05-09T23:20:51.281Z,56.37
2018-05-09T23:23:18.944Z,56.67
2018-05-09T23:25:46.575Z,57.23
2018-05-09T23:28:14.236Z,57.32
2018-05-09T23:30:41.889Z,57.48
2018-05-09T23:33:09.547Z,57.56
2018-05-09T23:35:37.148Z,57.30
2018-05-09T23:38:04.952Z,57.13
2018-05-09T23:40:32.601Z,57.27
2018-05-09T23:43:00.288Z,57.56
2018-05-09T23:45:27.983Z,58.11
2018-05-09T23:47:55.659Z,58.60
2018-05-09T23:50:23.317Z,58.97
2018-05-09T23:52:50.913Z,59.23
2018-05-09T23:55:18.571Z,58.80
2018-05-09T23:57:46.221Z,59.37
